Time;durP1;ratioP1;P1;durP2;ratioP2;P2;SDS_P1;SDS_P2;PMS_P1;PMS_P2;Temp;Humidity;BMP_temperature;BMP_pressure;BME280_temperature;BME280_humidity;BME280_pressure;Samples;Min_cycle;Max_cycle;Signal;HPM_P1;HPM_P2
2021/12/19 00:01:49;;;;;;;10.53;2.90;;;7.50;99.90;;;;;;5007151;28;20400;-71
2021/12/19 00:04:23;;;;;;;7.87;2.67;;;7.50;99.90;;;;;;5007042;28;20307;-71
2021/12/19 00:09:34;;;;;;;6.40;2.93;;;7.60;99.90;;;;;;5006854;28;20200;-71
2021/12/19 00:12:04;;;;;;;6.07;2.60;;;7.60;99.90;;;;;;5007376;28;20213;-71
2021/12/19 00:14:30;;;;;;;7.13;2.83;;;7.50;99.90;;;;;;5006732;28;20209;-71
2021/12/19 00:16:59;;;;;;;5.50;2.60;;;7.50;99.90;;;;;;5006528;28;20237;-71
2021/12/19 00:19:26;;;;;;;7.07;2.93;;;7.60;99.90;;;;;;5005671;28;20213;-71
2021/12/19 00:21:52;;;;;;;5.50;2.70;;;7.60;99.90;;;;;;5006486;28;20676;-71
2021/12/19 00:24:19;;;;;;;7.77;3.20;;;7.60;99.90;;;;;;5006693;28;20283;-71
2021/12/19 00:26:46;;;;;;;7.70;3.53;;;7.60;99.90;;;;;;5006285;28;20689;-71
2021/12/19 00:29:14;;;;;;;6.20;3.40;;;7.50;99.90;;;;;;5006604;28;20257;-71
2021/12/19 00:31:43;;;;;;;5.93;3.40;;;7.50;99.90;;;;;;5006298;28;20599;-71
2021/12/19 00:34:09;;;;;;;9.07;3.47;;;7.60;99.90;;;;;;5006184;28;20588;-71
2021/12/19 00:36:36;;;;;;;5.03;3.00;;;7.60;99.90;;;;;;5006314;28;20603;-71
2021/12/19 00:39:03;;;;;;;4.50;3.33;;;7.60;99.90;;;;;;5006539;28;20610;-71
2021/12/19 00:41:30;;;;;;;7.43;3.27;;;7.50;99.90;;;;;;5006068;28;20221;-71
2021/12/19 00:44:07;;;;;;;9.77;3.60;;;7.50;99.90;;;;;;5006592;28;20214;-71
2021/12/19 00:46:43;;;;;;;5.63;3.60;;;7.50;99.90;;;;;;5006575;28;20201;-71
2021/12/19 00:49:10;;;;;;;5.07;3.77;;;7.50;99.90;;;;;;5006175;28;20208;-71
2021/12/19 00:51:37;;;;;;;5.53;3.27;;;7.50;99.90;;;;;;5006146;28;20320;-71
2021/12/19 00:54:09;;;;;;;5.37;3.53;;;7.50;99.90;;;;;;5006288;28;20450;-71
2021/12/19 00:56:36;;;;;;;5.40;3.63;;;7.50;99.90;;;;;;5005863;28;20229;-71
2021/12/19 00:59:03;;;;;;;7.07;3.47;;;7.50;99.90;;;;;;5005830;28;20739;-71
2021/12/19 01:01:30;;;;;;;5.70;3.37;;;7.50;99.90;;;;;;5005927;28;20291;-70
2021/12/19 01:03:58;;;;;;;7.73;3.90;;;7.50;99.90;;;;;;5005773;28;20232;-70
2021/12/19 01:06:26;;;;;;;7.27;3.83;;;7.50;99.90;;;;;;5005676;28;20229;-71
2021/12/19 01:08:53;;;;;;;6.87;3.93;;;7.50;99.90;;;;;;5005826;28;20812;-70
2021/12/19 01:11:19;;;;;;;6.40;4.10;;;7.40;99.90;;;;;;5006229;28;20260;-70
2021/12/19 01:13:46;;;;;;;8.43;4.40;;;7.40;99.90;;;;;;5005477;28;20205;-71
2021/12/19 01:16:15;;;;;;;5.07;4.33;;;7.40;99.90;;;;;;5005803;28;20229;-71
2021/12/19 01:18:42;;;;;;;6.43;4.60;;;7.40;99.90;;;;;;5005379;28;20673;-70
2021/12/19 01:21:10;;;;;;;5.60;4.50;;;7.40;99.90;;;;;;5005551;28;20210;-71
2021/12/19 01:23:37;;;;;;;6.00;4.50;;;7.40;99.90;;;;;;5005318;28;20272;-71
2021/12/19 01:26:07;;;;;;;4.53;4.13;;;7.40;99.90;;;;;;5005694;28;20236;-71
2021/12/19 01:28:33;;;;;;;7.30;4.77;;;7.40;99.90;;;;;;5005457;28;20288;-71
2021/12/19 01:31:00;;;;;;;6.83;4.60;;;7.40;99.90;;;;;;5005542;28;20233;-71
2021/12/19 01:33:26;;;;;;;6.00;4.30;;;7.40;99.90;;;;;;5005273;28;20247;-70
2021/12/19 01:35:53;;;;;;;4.70;4.20;;;7.40;99.90;;;;;;5005101;28;20700;-70
2021/12/19 01:38:21;;;;;;;5.97;3.80;;;7.40;99.90;;;;;;5005479;28;20213;-71
2021/12/19 01:40:48;;;;;;;5.67;3.17;;;7.40;99.90;;;;;;5004851;28;20243;-71
2021/12/19 01:43:20;;;;;;;7.00;3.40;;;7.50;99.90;;;;;;5005385;28;20557;-71
2021/12/19 01:45:46;;;;;;;5.43;3.00;;;7.50;99.90;;;;;;5005150;28;20229;-70
2021/12/19 01:48:14;;;;;;;2.97;2.63;;;7.40;99.90;;;;;;5004962;28;20213;-71
2021/12/19 01:50:42;;;;;;;2.87;2.60;;;7.50;99.90;;;;;;5005086;28;20225;-71
2021/12/19 01:53:11;;;;;;;6.00;2.73;;;7.40;99.90;;;;;;5005114;28;20461;-71
2021/12/19 01:55:39;;;;;;;3.30;2.97;;;7.40;99.90;;;;;;5004518;28;20271;-70
2021/12/19 01:58:06;;;;;;;4.50;2.53;;;7.50;99.90;;;;;;5004844;28;20782;-71
2021/12/19 02:00:38;;;;;;;7.60;2.70;;;7.40;99.90;;;;;;5004917;28;20739;-71
2021/12/19 02:03:06;;;;;;;4.53;2.33;;;7.40;99.90;;;;;;5005474;28;20276;-71
2021/12/19 02:05:33;;;;;;;2.17;1.97;;;7.50;99.90;;;;;;5004974;28;20224;-70
2021/12/19 02:08:01;;;;;;;5.13;2.67;;;7.50;99.90;;;;;;5005141;28;20209;-71
2021/12/19 02:10:30;;;;;;;3.77;2.37;;;7.40;99.90;;;;;;5005202;28;20209;-71
2021/12/19 02:13:00;;;;;;;3.10;2.27;;;7.40;99.90;;;;;;5005419;28;20210;-71
2021/12/19 02:15:29;;;;;;;4.53;2.53;;;7.40;99.90;;;;;;5004571;28;20716;-71
2021/12/19 02:17:59;;;;;;;3.70;2.27;;;7.40;99.90;;;;;;5005278;28;20220;-71
2021/12/19 02:20:32;;;;;;;4.70;2.20;;;7.40;99.90;;;;;;5005427;28;20213;-71
2021/12/19 02:22:59;;;;;;;3.87;2.37;;;7.40;99.90;;;;;;5005545;28;20206;-71
2021/12/19 02:25:26;;;;;;;4.30;2.13;;;7.40;99.90;;;;;;5005064;28;20718;-71
2021/12/19 02:27:53;;;;;;;3.67;2.57;;;7.40;99.90;;;;;;5005372;28;20272;-71
2021/12/19 02:30:19;;;;;;;4.33;2.40;;;7.40;99.90;;;;;;5005247;28;20209;-71
2021/12/19 02:32:46;;;;;;;4.30;2.50;;;7.40;99.90;;;;;;5005211;28;20245;-71
2021/12/19 02:35:19;;;;;;;3.07;1.83;;;7.40;99.90;;;;;;5005528;28;20209;-71
2021/12/19 02:38:14;;;;;;;3.40;2.10;;;7.40;99.90;;;;;;5005331;28;20201;-70
2021/12/19 02:48:50;;;;;;;3.90;1.70;;;7.40;99.90;;;;;;5008934;28;20212;-71
2021/12/19 02:51:17;;;;;;;3.67;1.93;;;7.50;99.90;;;;;;5009128;28;20287;-71
2021/12/19 02:53:47;;;;;;;4.90;1.60;;;7.40;99.90;;;;;;5008679;28;20209;-71
2021/12/19 02:56:14;;;;;;;5.23;2.27;;;7.40;99.90;;;;;;5009048;28;20272;-71
2021/12/19 02:58:43;;;;;;;1.87;1.70;;;7.40;99.90;;;;;;5008813;28;20240;-70
2021/12/19 03:01:14;;;;;;;2.50;2.00;;;7.40;99.90;;;;;;5008957;28;20214;-70
2021/12/19 03:03:41;;;;;;;2.43;1.87;;;7.40;99.90;;;;;;5015057;28;20251;-71
2021/12/19 03:06:08;;;;;;;4.63;1.93;;;7.50;99.90;;;;;;5031703;28;20291;-71
2021/12/19 03:08:35;;;;;;;2.30;1.77;;;7.40;99.90;;;;;;5032099;28;20609;-71
2021/12/19 03:19:15;;;;;;;3.40;1.90;;;7.40;99.90;;;;;;5031401;28;20266;-71
2021/12/19 03:21:42;;;;;;;2.90;2.00;;;7.40;99.90;;;;;;5031331;28;20205;-71
2021/12/19 03:24:08;;;;;;;5.17;1.70;;;7.50;99.90;;;;;;5031339;28;20205;-71
2021/12/19 03:26:36;;;;;;;2.13;1.63;;;7.40;99.90;;;;;;5030912;28;20270;-70
2021/12/19 03:29:03;;;;;;;4.20;1.73;;;7.40;99.90;;;;;;5030950;28;20287;-71
2021/12/19 03:31:30;;;;;;;2.30;1.70;;;7.40;99.90;;;;;;5031004;28;20232;-71
2021/12/19 03:33:57;;;;;;;3.67;1.60;;;7.40;99.90;;;;;;5031044;28;20209;-71
2021/12/19 03:36:23;;;;;;;2.50;1.70;;;7.40;99.90;;;;;;5030945;28;20240;-70
2021/12/19 03:38:57;;;;;;;2.17;1.97;;;7.40;99.90;;;;;;5030630;28;20209;-71
2021/12/19 03:41:32;;;;;;;2.20;2.00;;;7.40;99.90;;;;;;5031073;28;20604;-71
2021/12/19 03:44:01;;;;;;;3.47;2.47;;;7.40;99.90;;;;;;5030780;28;20210;-71
2021/12/19 03:46:30;;;;;;;2.20;1.83;;;7.40;99.90;;;;;;5030652;28;20209;-71
2021/12/19 03:48:57;;;;;;;4.93;1.80;;;7.40;99.90;;;;;;5030627;28;20205;-71
2021/12/19 03:51:24;;;;;;;3.40;2.10;;;7.40;99.90;;;;;;5030716;28;20259;-71
2021/12/19 03:53:51;;;;;;;4.67;1.93;;;7.40;99.90;;;;;;5029428;28;20207;-71
2021/12/19 03:56:17;;;;;;;2.40;1.80;;;7.40;99.90;;;;;;5030984;28;20267;-71
2021/12/19 03:58:44;;;;;;;2.23;1.90;;;7.40;99.90;;;;;;5030672;28;20208;-71
2021/12/19 04:01:12;;;;;;;2.83;1.80;;;7.40;99.90;;;;;;5030824;28;20251;-71
2021/12/19 04:03:40;;;;;;;2.13;1.90;;;7.40;99.90;;;;;;5030685;28;20208;-71
2021/12/19 04:06:07;;;;;;;2.30;1.73;;;7.40;99.90;;;;;;5030765;28;20289;-71
2021/12/19 04:08:34;;;;;;;3.60;1.80;;;7.40;99.90;;;;;;5030434;28;20591;-71
2021/12/19 04:11:00;;;;;;;2.67;2.47;;;7.40;99.90;;;;;;5030715;28;20209;-71
2021/12/19 04:13:27;;;;;;;2.30;1.80;;;7.40;99.90;;;;;;5030171;28;20200;-70
2021/12/19 04:15:54;;;;;;;2.63;1.63;;;7.40;99.90;;;;;;5030490;28;20205;-71
2021/12/19 04:18:22;;;;;;;2.43;1.77;;;7.40;99.90;;;;;;5030166;28;20262;-71
2021/12/19 04:20:48;;;;;;;4.20;2.00;;;7.40;99.90;;;;;;5030604;28;20209;-71
2021/12/19 04:23:15;;;;;;;4.00;2.20;;;7.40;99.90;;;;;;5030331;28;20239;-71
2021/12/19 04:25:42;;;;;;;2.23;1.93;;;7.40;99.90;;;;;;5028370;28;20212;-71
2021/12/19 04:28:09;;;;;;;2.37;1.60;;;7.40;99.90;;;;;;5014152;28;20229;-71
2021/12/19 04:30:36;;;;;;;3.37;2.10;;;7.40;99.90;;;;;;5019263;28;20275;-71
2021/12/19 04:33:06;;;;;;;2.67;2.20;;;7.40;99.90;;;;;;5030153;28;20204;-72
2021/12/19 04:35:36;;;;;;;2.83;2.10;;;7.40;99.90;;;;;;5028938;28;20729;-70
2021/12/19 04:41:07;;;;;;;2.57;2.30;;;7.40;99.90;;;;;;5000443;28;20668;-72
2021/12/19 04:44:28;;;;;;;3.50;2.37;;;7.40;99.90;;;;;;5009725;28;20641;-72
2021/12/19 04:52:54;;;;;;;5.77;2.77;;;7.40;99.90;;;;;;5009338;28;20995;-71
2021/12/19 04:55:40;;;;;;;3.00;2.80;;;7.40;99.90;;;;;;5009286;28;20237;-72
2021/12/19 04:58:22;;;;;;;6.83;3.10;;;7.40;99.90;;;;;;5009749;28;20232;-72
2021/12/19 05:00:59;;;;;;;3.13;2.70;;;7.40;99.90;;;;;;5009598;28;20196;-72
2021/12/19 05:03:34;;;;;;;5.50;2.70;;;7.40;99.90;;;;;;5010168;28;20259;-72
2021/12/19 05:06:08;;;;;;;5.57;2.80;;;7.40;99.90;;;;;;5024619;28;20688;-72
2021/12/19 05:14:13;;;;;;;6.63;2.80;;;7.40;99.90;;;;;;4971268;28;20780;-72
2021/12/19 05:16:43;;;;;;;4.17;2.90;;;7.40;99.90;;;;;;5009508;28;20221;-72
2021/12/19 05:19:21;;;;;;;6.33;3.23;;;7.30;99.90;;;;;;5009351;28;20198;-73
2021/12/19 05:21:48;;;;;;;4.67;2.93;;;7.40;99.90;;;;;;5009103;28;20644;-72
2021/12/19 05:26:57;;;;;;;5.73;3.33;;;7.30;99.90;;;;;;5015816;28;20283;-72
2021/12/19 05:29:24;;;;;;;6.27;3.10;;;7.30;99.90;;;;;;5029305;28;20223;-72
2021/12/19 05:31:50;;;;;;;5.97;3.00;;;7.30;99.90;;;;;;5029089;28;20229;-72
2021/12/19 05:34:17;;;;;;;3.50;2.87;;;7.30;99.90;;;;;;5028936;28;20624;-72
2021/12/19 05:45:13;;;;;;;7.50;3.20;;;7.30;99.90;;;;;;5028783;28;20192;-72
2021/12/19 05:47:40;;;;;;;4.53;2.77;;;7.30;99.90;;;;;;5028525;28;20863;-71
2021/12/19 05:50:08;;;;;;;5.57;2.73;;;7.30;99.90;;;;;;5028093;28;20727;-71
2021/12/19 05:52:34;;;;;;;6.30;2.70;;;7.20;99.90;;;;;;5028546;28;20201;-72
2021/12/19 05:55:03;;;;;;;5.20;2.77;;;7.20;99.90;;;;;;5028216;28;20762;-71
2021/12/19 05:57:29;;;;;;;4.53;3.00;;;7.30;99.90;;;;;;5028438;28;20290;-71
2021/12/19 05:59:56;;;;;;;4.47;2.80;;;7.30;99.90;;;;;;5028767;28;20209;-71
2021/12/19 06:02:23;;;;;;;4.50;2.80;;;7.20;99.90;;;;;;5028629;28;20251;-72
2021/12/19 06:04:49;;;;;;;4.70;3.00;;;7.30;99.90;;;;;;5027952;28;20690;-71
2021/12/19 06:07:16;;;;;;;5.13;2.87;;;7.20;99.90;;;;;;5028567;28;20254;-71
2021/12/19 06:09:43;;;;;;;4.70;2.93;;;7.20;99.90;;;;;;5028176;28;20212;-71
2021/12/19 06:12:11;;;;;;;7.43;2.93;;;7.20;99.90;;;;;;5028087;28;20209;-71
2021/12/19 06:14:37;;;;;;;8.03;2.90;;;7.20;99.90;;;;;;5027884;28;20741;-71
2021/12/19 06:17:05;;;;;;;4.10;2.57;;;7.20;99.90;;;;;;5027593;28;20294;-71
2021/12/19 06:19:36;;;;;;;8.20;2.80;;;7.20;99.90;;;;;;5028098;28;20215;-72
2021/12/19 06:22:04;;;;;;;8.90;3.00;;;7.20;99.90;;;;;;5028535;28;20243;-71
2021/12/19 06:24:31;;;;;;;5.53;2.83;;;7.20;99.90;;;;;;5027902;28;20687;-72
2021/12/19 06:26:58;;;;;;;4.63;2.50;;;7.20;99.90;;;;;;5028170;28;20278;-72
2021/12/19 06:29:27;;;;;;;4.53;2.50;;;7.20;99.90;;;;;;5028133;28;20213;-72
2021/12/19 06:31:53;;;;;;;5.10;2.53;;;7.20;99.90;;;;;;5028525;28;20264;-72
2021/12/19 06:34:20;;;;;;;4.37;2.50;;;7.20;99.90;;;;;;5028085;28;20212;-72
2021/12/19 06:36:47;;;;;;;3.80;2.07;;;7.20;99.90;;;;;;5027927;28;20224;-71
2021/12/19 06:39:13;;;;;;;4.13;2.40;;;7.20;99.90;;;;;;5028309;28;20243;-71
2021/12/19 06:41:40;;;;;;;3.60;2.07;;;7.20;99.90;;;;;;5028018;28;20209;-71
2021/12/19 06:44:07;;;;;;;5.73;2.30;;;7.20;99.90;;;;;;5028183;28;20212;-71
2021/12/19 06:46:35;;;;;;;6.13;2.77;;;7.20;99.90;;;;;;5027949;28;20201;-71
2021/12/19 06:49:02;;;;;;;8.03;3.00;;;7.20;99.90;;;;;;5027948;28;20228;-71
2021/12/19 06:51:30;;;;;;;4.13;2.80;;;7.10;99.90;;;;;;5027972;28;20204;-71
2021/12/19 06:53:57;;;;;;;4.23;2.87;;;7.10;99.90;;;;;;5027718;28;20227;-71
2021/12/19 06:56:24;;;;;;;7.10;3.50;;;7.00;99.90;;;;;;5027981;28;20201;-71
2021/12/19 06:58:50;;;;;;;5.53;3.47;;;7.10;99.90;;;;;;5027769;28;20236;-71
2021/12/19 07:01:17;;;;;;;7.07;3.30;;;7.00;99.90;;;;;;5027927;28;20267;-71
2021/12/19 07:03:45;;;;;;;4.77;3.13;;;7.00;99.90;;;;;;5027830;28;20204;-71
2021/12/19 07:06:12;;;;;;;5.20;3.20;;;7.00;99.90;;;;;;5027818;28;20279;-71
2021/12/19 07:08:38;;;;;;;3.83;2.50;;;7.00;99.90;;;;;;5027961;28;20274;-71
2021/12/19 07:11:05;;;;;;;4.37;2.60;;;7.00;99.90;;;;;;5027976;28;20267;-71
2021/12/19 07:13:32;;;;;;;6.60;2.20;;;7.00;99.90;;;;;;5027721;28;20208;-71
2021/12/19 07:15:59;;;;;;;3.33;2.00;;;7.00;99.90;;;;;;5027793;28;20212;-71
2021/12/19 07:18:25;;;;;;;2.70;1.80;;;7.00;99.90;;;;;;5027668;28;20237;-71
2021/12/19 07:20:53;;;;;;;3.17;1.87;;;7.00;99.90;;;;;;5027837;28;20263;-72
2021/12/19 07:23:21;;;;;;;3.30;1.40;;;7.00;99.90;;;;;;5027785;28;20213;-73
2021/12/19 07:25:48;;;;;;;3.07;1.50;;;7.00;99.90;;;;;;5027432;28;20714;-73
2021/12/19 07:28:15;;;;;;;3.30;1.50;;;7.10;99.90;;;;;;5029460;28;20279;-73
2021/12/19 07:30:42;;;;;;;1.30;1.20;;;7.00;99.90;;;;;;5031454;28;20232;-73
2021/12/19 07:33:11;;;;;;;1.43;1.23;;;7.00;99.90;;;;;;5031420;28;20201;-73
2021/12/19 07:35:41;;;;;;;1.57;1.27;;;7.00;99.90;;;;;;5031401;28;20292;-72
2021/12/19 07:38:11;;;;;;;1.40;1.17;;;7.00;99.90;;;;;;5031423;28;20220;-73
2021/12/19 07:40:39;;;;;;;1.00;0.90;;;7.00;99.90;;;;;;5031214;28;20201;-72
2021/12/19 07:43:08;;;;;;;1.63;0.80;;;7.00;99.90;;;;;;5031295;28;20213;-72
2021/12/19 07:45:35;;;;;;;1.33;1.17;;;7.10;99.90;;;;;;5030921;28;20648;-72
2021/12/19 07:48:02;;;;;;;1.40;1.20;;;7.10;99.90;;;;;;5031031;28;20208;-72
2021/12/19 07:50:29;;;;;;;1.47;0.93;;;7.00;99.90;;;;;;5030568;28;20613;-72
2021/12/19 07:52:56;;;;;;;1.70;0.83;;;7.00;99.90;;;;;;5030664;28;20254;-73
2021/12/19 07:55:26;;;;;;;1.70;0.90;;;7.00;99.90;;;;;;5030502;28;20291;-73
2021/12/19 07:57:52;;;;;;;2.00;0.90;;;7.00;99.90;;;;;;5030706;28;20243;-73
2021/12/19 08:00:20;;;;;;;1.17;0.90;;;6.90;99.90;;;;;;5030554;28;20734;-73
2021/12/19 08:02:48;;;;;;;1.33;1.00;;;6.90;99.90;;;;;;5030151;28;20696;-73
2021/12/19 08:05:16;;;;;;;1.07;0.90;;;6.90;99.90;;;;;;5030006;28;20228;-73
2021/12/19 08:07:46;;;;;;;2.07;1.30;;;6.90;99.90;;;;;;5030659;28;20205;-73
2021/12/19 08:11:39;;;;;;;3.43;1.10;;;6.90;99.90;;;;;;5030047;28;20992;-72
2021/12/19 08:13:03;;;;;;;0.83;0.80;;;6.90;99.90;;;;;;5030163;28;20251;-73
2021/12/19 08:15:30;;;;;;;0.97;0.70;;;6.80;99.90;;;;;;5030291;28;20212;-73
2021/12/19 08:17:56;;;;;;;2.23;1.10;;;6.70;99.90;;;;;;5030246;28;20700;-72
2021/12/19 08:20:24;;;;;;;1.17;0.77;;;6.70;99.90;;;;;;5029793;28;20731;-72
2021/12/19 08:22:51;;;;;;;2.07;1.13;;;6.80;99.90;;;;;;5029836;28;20726;-71
2021/12/19 08:25:18;;;;;;;1.43;0.80;;;6.80;99.90;;;;;;5030215;28;20229;-71
2021/12/19 08:27:45;;;;;;;1.80;1.40;;;6.60;99.90;;;;;;5029756;28;20708;-72
2021/12/19 08:30:14;;;;;;;1.23;0.97;;;6.60;99.90;;;;;;5030219;28;20232;-71
2021/12/19 08:32:41;;;;;;;1.10;0.90;;;6.60;99.90;;;;;;5029860;28;20209;-72
2021/12/19 08:35:10;;;;;;;1.60;1.50;;;6.60;99.90;;;;;;5030198;28;20263;-72
2021/12/19 08:37:37;;;;;;;1.17;1.03;;;6.60;99.90;;;;;;5029770;28;20637;-72
2021/12/19 08:40:04;;;;;;;2.07;1.10;;;6.70;99.90;;;;;;5029485;28;20267;-72
2021/12/19 08:42:32;;;;;;;3.67;1.27;;;6.60;99.90;;;;;;5029969;28;20205;-72
2021/12/19 08:44:59;;;;;;;2.03;1.10;;;6.60;99.90;;;;;;5029461;28;20714;-72
2021/12/19 08:47:28;;;;;;;1.63;1.27;;;6.60;99.90;;;;;;5029826;28;20240;-73
2021/12/19 08:49:55;;;;;;;3.07;1.43;;;6.50;99.90;;;;;;5029529;28;20282;-73
2021/12/19 08:52:22;;;;;;;1.70;1.60;;;6.50;99.90;;;;;;5029906;28;20398;-71
2021/12/19 08:54:48;;;;;;;2.80;1.47;;;6.40;99.90;;;;;;5029363;28;20703;-72
2021/12/19 08:57:15;;;;;;;1.47;1.40;;;6.40;99.90;;;;;;5029532;28;20660;-70
2021/12/19 08:59:43;;;;;;;3.07;1.10;;;6.50;99.90;;;;;;5029545;28;20213;-71
2021/12/19 09:02:10;;;;;;;2.13;1.33;;;6.50;99.90;;;;;;5029571;28;20293;-71
2021/12/19 09:04:38;;;;;;;3.30;1.13;;;6.50;99.90;;;;;;5029272;28;20221;-71
2021/12/19 09:07:05;;;;;;;1.60;1.50;;;6.50;99.90;;;;;;5029567;28;20212;-71
2021/12/19 09:09:31;;;;;;;3.60;1.40;;;6.50;99.90;;;;;;5029163;28;20282;-71
2021/12/19 09:11:58;;;;;;;1.47;1.23;;;6.50;99.90;;;;;;5029685;28;20653;-72
2021/12/19 09:14:25;;;;;;;2.50;1.50;;;6.50;99.90;;;;;;5029445;28;20205;-72
2021/12/19 09:16:51;;;;;;;1.50;1.40;;;6.50;99.90;;;;;;5029508;28;20208;-72
2021/12/19 09:19:21;;;;;;;2.10;1.63;;;6.50;99.90;;;;;;5029049;28;20236;-72
2021/12/19 09:21:49;;;;;;;3.70;2.30;;;6.60;99.90;;;;;;5029043;28;20215;-72
2021/12/19 09:24:15;;;;;;;1.97;1.83;;;6.50;99.90;;;;;;5029269;28;20262;-72
2021/12/19 09:26:42;;;;;;;3.87;2.67;;;6.50;99.90;;;;;;5028770;28;20232;-72
2021/12/19 09:29:09;;;;;;;1.40;1.30;;;6.50;99.90;;;;;;5028619;28;20784;-73
2021/12/19 09:31:36;;;;;;;2.60;1.20;;;6.50;99.90;;;;;;5028673;28;20629;-72
2021/12/19 09:34:03;;;;;;;5.53;1.80;;;6.40;99.90;;;;;;5028538;28;20266;-72
2021/12/19 09:36:30;;;;;;;2.73;1.50;;;6.40;99.90;;;;;;5028433;28;20680;-72
2021/12/19 09:38:58;;;;;;;1.70;1.60;;;6.40;99.90;;;;;;5028460;28;20286;-72
2021/12/19 09:41:33;;;;;;;1.63;1.53;;;6.40;99.90;;;;;;5028913;28;20209;-72
2021/12/19 09:44:05;;;;;;;2.57;1.60;;;6.40;99.90;;;;;;5028937;28;20188;-72
2021/12/19 09:46:35;;;;;;;2.80;1.40;;;6.40;99.90;;;;;;5028459;28;20209;-71
2021/12/19 09:49:04;;;;;;;2.50;1.60;;;6.40;99.90;;;;;;5028371;28;20286;-71
2021/12/19 09:51:31;;;;;;;1.83;1.67;;;6.40;99.90;;;;;;5027323;28;20205;-71
2021/12/19 09:53:59;;;;;;;3.43;2.00;;;6.40;99.90;;;;;;5028550;28;20790;-72
2021/12/19 09:56:26;;;;;;;2.93;1.90;;;6.40;99.90;;;;;;5028669;28;20241;-70
2021/12/19 09:58:54;;;;;;;2.47;1.50;;;6.40;99.90;;;;;;5028577;28;20228;-72
2021/12/19 10:01:20;;;;;;;1.37;1.27;;;6.50;99.90;;;;;;5028698;28;20219;-72
2021/12/19 10:03:47;;;;;;;1.43;1.30;;;6.50;99.90;;;;;;5028473;28;20211;-71
2021/12/19 10:06:16;;;;;;;2.97;1.60;;;6.50;99.90;;;;;;5028626;28;20259;-72
2021/12/19 10:08:43;;;;;;;2.47;1.50;;;6.50;99.90;;;;;;5028460;28;20653;-72
2021/12/19 10:11:34;;;;;;;1.60;1.50;;;6.50;99.90;;;;;;5028377;28;20684;-71
2021/12/19 10:14:00;;;;;;;2.17;1.50;;;6.40;99.90;;;;;;5028495;28;20223;-72
2021/12/19 10:16:29;;;;;;;1.80;1.23;;;6.40;99.90;;;;;;5028155;28;20231;-72
2021/12/19 10:18:59;;;;;;;4.70;1.90;;;6.40;99.90;;;;;;5028049;28;20228;-71
2021/12/19 10:21:27;;;;;;;1.90;1.60;;;6.40;99.90;;;;;;5027917;28;20683;-71
2021/12/19 10:23:59;;;;;;;3.23;1.27;;;6.40;99.90;;;;;;5027627;28;20651;-73
2021/12/19 10:26:41;;;;;;;5.47;1.63;;;6.40;99.90;;;;;;5028382;28;20235;-72
2021/12/19 10:29:08;;;;;;;1.90;1.63;;;6.40;99.90;;;;;;5028265;28;20275;-73
2021/12/19 10:31:35;;;;;;;5.07;1.50;;;6.50;99.90;;;;;;5028033;28;20211;-72
2021/12/19 10:34:20;;;;;;;4.57;1.57;;;6.40;99.90;;;;;;5027953;28;20335;-76
2021/12/19 10:36:46;;;;;;;6.77;2.00;;;6.40;99.90;;;;;;5027799;28;20200;-71
2021/12/19 10:39:16;;;;;;;6.27;2.07;;;6.40;99.90;;;;;;5027902;28;20241;-71
2021/12/19 10:41:44;;;;;;;4.50;1.90;;;6.40;99.90;;;;;;5026337;28;20303;-71
2021/12/19 10:45:29;;;;;;;3.70;1.70;;;6.50;99.90;;;;;;5023142;28;20217;-71
2021/12/19 10:47:21;;;;;;;6.33;1.80;;;6.50;99.90;;;;;;5007904;28;20205;-71
2021/12/19 10:49:48;;;;;;;5.33;2.03;;;6.50;99.90;;;;;;5010614;28;20213;-71
2021/12/19 10:52:14;;;;;;;2.20;2.00;;;6.50;99.90;;;;;;5024201;28;20725;-71
2021/12/19 10:54:56;;;;;;;5.43;2.10;;;6.50;99.90;;;;;;5023808;28;20237;-71
2021/12/19 10:57:32;;;;;;;5.27;1.70;;;6.60;99.90;;;;;;5024088;28;20219;-71
2021/12/19 10:59:59;;;;;;;2.77;1.70;;;6.60;99.90;;;;;;5023414;28;20227;-71
2021/12/19 11:02:35;;;;;;;3.83;1.60;;;6.60;99.90;;;;;;5024528;28;20266;-72
2021/12/19 11:05:02;;;;;;;6.37;2.23;;;6.60;99.90;;;;;;5027391;28;20228;-71
2021/12/19 11:07:28;;;;;;;3.20;1.70;;;6.60;99.90;;;;;;5026950;28;20209;-71
2021/12/19 11:09:55;;;;;;;5.47;2.30;;;6.60;99.90;;;;;;5028129;28;20232;-71
2021/12/19 11:12:23;;;;;;;9.43;1.60;;;6.60;99.90;;;;;;5027603;28;20634;-71
2021/12/19 11:14:51;;;;;;;4.43;2.20;;;6.60;99.90;;;;;;5027832;28;20251;-71
2021/12/19 11:17:20;;;;;;;5.30;2.43;;;6.60;99.90;;;;;;5027905;28;20221;-71
2021/12/19 11:19:48;;;;;;;5.97;1.93;;;6.60;99.90;;;;;;5027546;28;20233;-70
2021/12/19 11:22:23;;;;;;;6.47;2.50;;;6.60;99.90;;;;;;5027838;28;20205;-71
2021/12/19 11:24:50;;;;;;;6.80;2.33;;;6.70;99.90;;;;;;5027468;28;20204;-71
2021/12/19 11:27:16;;;;;;;7.23;2.47;;;6.70;99.90;;;;;;5027621;28;20232;-71
2021/12/19 11:29:46;;;;;;;4.17;2.13;;;6.70;99.90;;;;;;5027688;28;20251;-71
2021/12/19 11:32:19;;;;;;;5.73;3.13;;;6.70;99.90;;;;;;5028063;28;20216;-71
2021/12/19 11:34:57;;;;;;;8.47;3.60;;;6.70;99.90;;;;;;5027474;28;20204;-71
2021/12/19 11:37:28;;;;;;;5.00;2.40;;;6.60;99.90;;;;;;5027294;28;20201;-71
2021/12/19 11:39:56;;;;;;;2.60;1.60;;;6.70;99.90;;;;;;5027375;28;20235;-71
2021/12/19 11:42:30;;;;;;;3.40;2.07;;;6.70;99.90;;;;;;5027279;28;20197;-71
2021/12/19 11:45:15;;;;;;;6.87;3.13;;;6.60;99.90;;;;;;5027004;28;20307;-71
2021/12/19 11:47:47;;;;;;;3.77;1.90;;;6.60;99.90;;;;;;5027279;28;20311;-71
2021/12/19 11:50:21;;;;;;;4.87;2.40;;;6.60;99.90;;;;;;5026963;28;20736;-71
2021/12/19 11:52:50;;;;;;;6.23;2.60;;;6.60;99.90;;;;;;5026844;28;20225;-71
2021/12/19 11:55:24;;;;;;;3.57;2.20;;;6.60;99.90;;;;;;5026585;28;20236;-71
2021/12/19 11:58:20;;;;;;;4.90;1.93;;;6.60;99.90;;;;;;5027031;28;20702;-71
2021/12/19 12:00:54;;;;;;;5.93;2.27;;;6.60;99.90;;;;;;5026475;28;20201;-71
2021/12/19 12:03:43;;;;;;;5.60;2.30;;;6.60;99.90;;;;;;5026383;28;20667;-71
2021/12/19 12:06:33;;;;;;;6.63;2.20;;;6.60;99.90;;;;;;5024664;28;20217;-74
2021/12/19 12:09:26;;;;;;;4.73;2.37;;;6.60;99.90;;;;;;5026676;28;21047;-74
2021/12/19 12:12:12;;;;;;;8.43;2.37;;;6.70;99.90;;;;;;5026645;28;20201;-71
2021/12/19 12:14:42;;;;;;;5.70;2.27;;;6.80;99.90;;;;;;5025627;28;20201;-71
2021/12/19 12:17:17;;;;;;;5.30;1.50;;;6.80;99.90;;;;;;5027440;28;20204;-72
2021/12/19 12:19:50;;;;;;;6.47;1.77;;;6.70;99.90;;;;;;5026790;28;20302;-71
2021/12/19 12:22:39;;;;;;;3.17;1.43;;;6.70;99.90;;;;;;5026413;28;20197;-71
2021/12/19 12:25:14;;;;;;;5.63;1.60;;;6.60;99.90;;;;;;5026172;28;20205;-72
2021/12/19 12:27:45;;;;;;;4.37;1.30;;;6.70;99.90;;;;;;5025799;28;20606;-71
2021/12/19 12:30:14;;;;;;;2.83;1.20;;;6.60;99.90;;;;;;5025806;28;20532;-71
2021/12/19 12:32:43;;;;;;;6.30;1.37;;;6.70;99.90;;;;;;5026107;28;20217;-71
2021/12/19 12:35:12;;;;;;;4.23;1.77;;;6.70;99.90;;;;;;5026037;28;20263;-71
2021/12/19 12:37:40;;;;;;;5.67;2.77;;;6.70;99.90;;;;;;5025844;28;20219;-71
2021/12/19 12:40:26;;;;;;;6.00;2.17;;;6.70;99.90;;;;;;5025852;28;20249;-72
2021/12/19 12:43:09;;;;;;;4.50;1.40;;;6.70;99.90;;;;;;5025983;28;20223;-71
2021/12/19 12:45:58;;;;;;;1.83;1.20;;;6.70;99.90;;;;;;5025983;28;20197;-71
2021/12/19 12:48:53;;;;;;;4.23;1.20;;;6.70;99.90;;;;;;5025681;28;20286;-71
2021/12/19 12:51:29;;;;;;;2.63;1.20;;;6.70;99.90;;;;;;5025698;28;20212;-71
2021/12/19 12:53:58;;;;;;;4.73;1.63;;;6.70;99.90;;;;;;5025183;28;20254;-70
2021/12/19 12:56:31;;;;;;;3.87;1.40;;;6.80;99.90;;;;;;5025474;28;20205;-71
2021/12/19 12:58:58;;;;;;;5.47;1.60;;;6.80;99.90;;;;;;5025754;28;20271;-72
2021/12/19 13:01:31;;;;;;;3.80;1.27;;;6.90;99.90;;;;;;5025141;28;20220;-71
2021/12/19 13:04:24;;;;;;;3.07;1.33;;;6.80;99.90;;;;;;5024792;28;20711;-71
2021/12/19 13:07:01;;;;;;;4.33;1.50;;;6.80;99.90;;;;;;5025309;28;20196;-71
2021/12/19 13:09:31;;;;;;;1.97;1.20;;;6.80;99.90;;;;;;5024877;28;20679;-71
2021/12/19 13:12:04;;;;;;;4.30;1.57;;;6.80;99.90;;;;;;5025350;28;20239;-71
2021/12/19 13:14:33;;;;;;;3.93;1.50;;;6.80;99.90;;;;;;5025259;28;20672;-71
2021/12/19 13:17:05;;;;;;;2.30;1.30;;;6.80;99.90;;;;;;5025672;28;20209;-71
2021/12/19 13:19:48;;;;;;;3.30;1.40;;;6.80;99.90;;;;;;5025146;28;20228;-72
2021/12/19 13:22:27;;;;;;;4.10;1.50;;;6.80;99.90;;;;;;5025416;28;20197;-72
2021/12/19 13:24:59;;;;;;;3.43;1.23;;;6.80;99.90;;;;;;5024938;28;20220;-72
2021/12/19 13:27:32;;;;;;;1.57;1.30;;;6.80;99.90;;;;;;5025445;28;20236;-73
2021/12/19 13:30:08;;;;;;;4.97;1.37;;;6.80;99.90;;;;;;5024734;28;20767;-72
2021/12/19 13:32:36;;;;;;;9.87;4.23;;;6.80;99.90;;;;;;5024814;28;20204;-72
2021/12/19 13:35:08;;;;;;;2.50;1.80;;;6.80;99.90;;;;;;5025233;28;20227;-74
2021/12/19 13:37:46;;;;;;;6.00;1.73;;;6.90;99.90;;;;;;5024958;28;20209;-74
2021/12/19 13:40:15;;;;;;;2.73;1.43;;;6.90;99.90;;;;;;5024648;28;20548;-72
2021/12/19 13:42:45;;;;;;;6.10;1.73;;;6.90;99.90;;;;;;5024915;28;20616;-72
2021/12/19 13:45:41;;;;;;;3.13;1.80;;;6.90;99.90;;;;;;5024498;28;20200;-72
2021/12/19 13:48:11;;;;;;;1.83;1.50;;;6.80;99.90;;;;;;5024248;28;20220;-72
2021/12/19 13:50:45;;;;;;;5.83;1.80;;;6.80;99.90;;;;;;5024188;28;20208;-72
2021/12/19 13:53:14;;;;;;;6.03;2.80;;;6.80;99.90;;;;;;5024403;28;20207;-72
2021/12/19 13:55:47;;;;;;;6.07;2.47;;;6.80;99.90;;;;;;5024211;28;20245;-72
2021/12/19 13:58:15;;;;;;;5.70;1.93;;;6.80;99.90;;;;;;5024878;28;20200;-72